Time;durP1;ratioP1;P1;durP2;ratioP2;P2;SDS_P1;SDS_P2;PMS_P1;PMS_P2;Temp;Humidity;BMP_temperature;BMP_pressure;BME280_temperature;BME280_humidity;BME280_pressure;Samples;Min_cycle;Max_cycle;Signal;HPM_P1;HPM_P2
2022/05/14 00:02:09;;;;;;;3.57;3.13;;;11.60;32.30;;;;;;4917200;29;20254;-69
2022/05/14 00:04:34;;;;;;;3.93;3.40;;;11.60;32.30;;;;;;4917720;29;20516;-69
2022/05/14 00:07:00;;;;;;;3.90;3.47;;;11.50;32.30;;;;;;4917230;29;20876;-70
2022/05/14 00:09:25;;;;;;;6.33;3.37;;;11.50;32.50;;;;;;4916823;29;20203;-69
2022/05/14 00:14:35;;;;;;;3.03;2.73;;;11.40;32.50;;;;;;4917139;29;20253;-70
2022/05/14 00:17:00;;;;;;;3.97;3.27;;;11.40;32.70;;;;;;4917035;29;20428;-70
2022/05/14 00:19:27;;;;;;;4.60;2.77;;;11.40;32.80;;;;;;4934027;29;20220;-70
2022/05/14 00:21:52;;;;;;;4.40;2.83;;;11.30;32.80;;;;;;4935784;29;20184;-70
2022/05/14 00:24:18;;;;;;;4.30;3.13;;;11.30;32.90;;;;;;4935878;29;20415;-70
2022/05/14 00:26:43;;;;;;;11.13;3.87;;;11.30;33.50;;;;;;4935796;29;20181;-70
2022/05/14 00:29:09;;;;;;;2.90;2.60;;;11.20;33.20;;;;;;4935488;29;20655;-70
2022/05/14 00:31:35;;;;;;;3.73;3.43;;;11.30;33.90;;;;;;4935766;29;20184;-70
2022/05/14 00:34:00;;;;;;;4.57;2.67;;;11.30;33.40;;;;;;4935606;29;20187;-70
2022/05/14 00:36:26;;;;;;;4.17;2.63;;;11.20;33.70;;;;;;4935909;29;20279;-69
2022/05/14 00:38:54;;;;;;;3.40;2.97;;;11.10;33.80;;;;;;4935313;29;20546;-70
2022/05/14 00:41:19;;;;;;;4.20;3.20;;;11.10;34.10;;;;;;4935743;29;20562;-70
2022/05/14 00:43:57;;;;;;;5.17;3.10;;;11.20;34.10;;;;;;4935389;29;20477;-69
2022/05/14 00:46:38;;;;;;;3.37;2.50;;;11.20;34.20;;;;;;4918220;29;20183;-70
2022/05/14 00:49:04;;;;;;;3.90;3.03;;;11.10;34.30;;;;;;4935252;29;20521;-71
2022/05/14 00:51:30;;;;;;;4.03;3.67;;;11.10;35.10;;;;;;4935277;29;20509;-70
2022/05/14 00:54:02;;;;;;;6.73;3.03;;;11.10;34.80;;;;;;4935288;29;20256;-69
2022/05/14 00:56:34;;;;;;;4.37;2.97;;;11.20;34.40;;;;;;4935231;29;20445;-69
2022/05/14 00:59:08;;;;;;;4.83;3.57;;;11.10;34.60;;;;;;4934906;29;20440;-69
2022/05/14 01:01:35;;;;;;;7.40;3.57;;;11.10;35.00;;;;;;4935361;29;20452;-69
2022/05/14 01:04:01;;;;;;;5.27;3.23;;;11.10;34.50;;;;;;4918111;29;20897;-70
2022/05/14 01:06:29;;;;;;;5.27;3.83;;;11.10;34.60;;;;;;4935202;29;20458;-70
2022/05/14 01:08:54;;;;;;;5.37;3.60;;;11.10;34.40;;;;;;4934749;29;20255;-70
2022/05/14 01:11:20;;;;;;;4.37;3.97;;;11.00;34.50;;;;;;4917842;29;20425;-70
2022/05/14 01:13:46;;;;;;;3.47;3.13;;;11.00;34.50;;;;;;4918387;29;20521;-70
2022/05/14 01:16:12;;;;;;;3.90;3.07;;;10.90;34.50;;;;;;4935009;29;20935;-70
2022/05/14 01:18:38;;;;;;;4.90;3.00;;;10.90;34.70;;;;;;4934607;29;20538;-68
2022/05/14 01:21:29;;;;;;;3.40;3.10;;;10.80;34.80;;;;;;4917791;29;20183;-68
2022/05/14 01:26:48;;;;;;;5.97;3.53;;;10.80;35.40;;;;;;4936280;29;20429;-69
2022/05/14 01:29:20;;;;;;;5.87;3.70;;;10.70;35.30;;;;;;4935780;29;20444;-70
2022/05/14 01:31:47;;;;;;;3.07;2.80;;;10.70;35.40;;;;;;4936571;29;20533;-71
2022/05/14 01:34:19;;;;;;;4.23;2.87;;;10.70;35.20;;;;;;4935955;29;20484;-71
2022/05/14 01:36:45;;;;;;;4.90;3.30;;;10.60;35.30;;;;;;4936357;29;20444;-70
2022/05/14 01:39:11;;;;;;;5.73;2.60;;;10.50;35.80;;;;;;4935618;29;20440;-70
2022/05/14 01:41:37;;;;;;;3.80;3.37;;;10.50;36.20;;;;;;4935640;29;20428;-71
2022/05/14 01:44:03;;;;;;;3.20;2.80;;;10.50;36.00;;;;;;4935358;29;20465;-72
2022/05/14 01:46:29;;;;;;;3.10;2.80;;;10.50;36.00;;;;;;4935306;29;20468;-71
2022/05/14 01:48:55;;;;;;;2.87;2.60;;;10.50;36.10;;;;;;4934657;29;20527;-70
2022/05/14 01:51:21;;;;;;;4.43;2.90;;;10.40;36.50;;;;;;4935196;29;20416;-70
2022/05/14 01:53:47;;;;;;;5.07;2.60;;;10.50;36.10;;;;;;4934745;29;20180;-69
2022/05/14 01:56:12;;;;;;;3.40;3.10;;;10.50;36.00;;;;;;4934891;29;20193;-70
2022/05/14 01:58:38;;;;;;;4.20;2.60;;;10.40;36.50;;;;;;4935231;29;21077;-71
2022/05/14 02:01:10;;;;;;;2.83;2.00;;;10.40;36.30;;;;;;4936410;29;20267;-70
2022/05/14 02:03:36;;;;;;;3.70;2.77;;;10.40;36.60;;;;;;4937776;29;20492;-70
2022/05/14 02:06:03;;;;;;;2.60;2.33;;;10.40;36.50;;;;;;4939614;29;20425;-70
2022/05/14 02:08:29;;;;;;;4.57;3.67;;;10.40;36.00;;;;;;4938947;29;20441;-70
2022/05/14 02:10:55;;;;;;;4.77;2.43;;;10.30;36.40;;;;;;4939658;29;20487;-71
2022/05/14 02:13:20;;;;;;;3.93;2.80;;;10.30;36.40;;;;;;4939162;29;20641;-71
2022/05/14 02:15:46;;;;;;;3.10;2.87;;;10.30;36.40;;;;;;4938774;29;20258;-71
2022/05/14 02:18:11;;;;;;;6.20;3.20;;;10.20;36.50;;;;;;4921158;29;20224;-70
2022/05/14 02:20:37;;;;;;;3.73;3.27;;;10.20;36.30;;;;;;4938978;29;20320;-70
2022/05/14 02:23:02;;;;;;;2.87;2.63;;;10.10;36.30;;;;;;4938945;29;20222;-70
2022/05/14 02:25:28;;;;;;;5.10;2.60;;;10.10;36.80;;;;;;4938556;29;20175;-70
2022/05/14 02:27:54;;;;;;;2.77;2.30;;;10.10;36.80;;;;;;4938296;29;20743;-70
2022/05/14 02:30:19;;;;;;;4.03;2.77;;;10.10;37.20;;;;;;4938563;29;20420;-70
2022/05/14 02:32:45;;;;;;;3.20;2.90;;;10.10;37.50;;;;;;4938535;29;20265;-70
2022/05/14 02:35:11;;;;;;;6.03;3.30;;;10.10;37.40;;;;;;4938911;29;20483;-71
2022/05/14 02:37:36;;;;;;;3.43;2.70;;;10.10;37.00;;;;;;4921067;29;20209;-70
2022/05/14 02:40:03;;;;;;;5.83;3.33;;;10.10;37.10;;;;;;4938188;29;20213;-70
2022/05/14 02:42:28;;;;;;;3.10;2.63;;;10.10;37.10;;;;;;4937878;29;20203;-70
2022/05/14 02:44:54;;;;;;;4.00;2.53;;;10.10;37.90;;;;;;4937921;29;20422;-71
2022/05/14 02:47:20;;;;;;;2.70;2.50;;;10.10;37.50;;;;;;4937465;29;20599;-70
2022/05/14 02:49:45;;;;;;;6.63;3.10;;;10.20;37.30;;;;;;4937800;29;20175;-71
2022/05/14 02:52:11;;;;;;;2.90;2.60;;;10.10;36.70;;;;;;4938015;29;20183;-70
2022/05/14 02:54:38;;;;;;;4.60;3.20;;;10.10;36.50;;;;;;4937839;29;20256;-71
2022/05/14 02:57:04;;;;;;;3.40;3.10;;;10.10;36.70;;;;;;4937712;29;20415;-70
2022/05/14 02:59:30;;;;;;;4.60;3.50;;;10.10;37.10;;;;;;4920397;29;20971;-71
2022/05/14 03:01:56;;;;;;;6.97;3.23;;;10.10;37.30;;;;;;4937523;29;20464;-70
2022/05/14 03:04:25;;;;;;;2.90;2.60;;;10.10;36.90;;;;;;4937663;29;20248;-70
2022/05/14 03:06:52;;;;;;;4.57;3.90;;;10.10;36.30;;;;;;4937516;29;20430;-71
2022/05/14 03:09:18;;;;;;;2.87;2.60;;;10.00;36.80;;;;;;4937088;29;20483;-70
2022/05/14 03:11:43;;;;;;;3.30;2.80;;;10.00;36.80;;;;;;4937381;29;20468;-71
2022/05/14 03:14:09;;;;;;;4.07;2.77;;;9.90;38.20;;;;;;4935952;29;20524;-70
2022/05/14 03:16:35;;;;;;;3.33;3.00;;;9.80;38.50;;;;;;4937261;29;20182;-70
2022/05/14 03:19:01;;;;;;;7.00;2.90;;;9.80;38.50;;;;;;4937044;29;20585;-69
2022/05/14 03:21:26;;;;;;;3.73;3.00;;;9.90;38.30;;;;;;4920015;29;20660;-71
2022/05/14 03:23:52;;;;;;;2.57;2.37;;;9.80;38.20;;;;;;4937194;29;20213;-70
2022/05/14 03:26:17;;;;;;;2.90;2.70;;;9.80;38.70;;;;;;4937116;29;20175;-70
2022/05/14 03:28:43;;;;;;;4.33;2.87;;;9.80;38.40;;;;;;4936822;29;20689;-71
2022/05/14 03:31:09;;;;;;;7.33;3.17;;;9.80;38.40;;;;;;4936967;29;20382;-70
2022/05/14 03:33:34;;;;;;;8.20;3.43;;;9.80;38.20;;;;;;4936962;29;20188;-70
2022/05/14 03:36:00;;;;;;;3.83;2.80;;;9.80;38.40;;;;;;4936922;29;20187;-71
2022/05/14 03:38:25;;;;;;;3.00;2.70;;;9.80;38.60;;;;;;4919666;29;20206;-70
2022/05/14 03:40:51;;;;;;;3.30;2.43;;;9.70;38.60;;;;;;4936950;29;20181;-70
2022/05/14 03:43:16;;;;;;;3.60;3.30;;;9.70;39.00;;;;;;4919741;29;20217;-70
2022/05/14 03:45:42;;;;;;;3.50;2.47;;;9.70;38.80;;;;;;4936765;29;20184;-70
2022/05/14 03:48:10;;;;;;;2.43;2.23;;;9.60;39.10;;;;;;4936390;29;20621;-71
2022/05/14 03:50:35;;;;;;;3.53;2.63;;;9.60;39.20;;;;;;4919564;29;20218;-71
2022/05/14 03:53:01;;;;;;;5.77;3.30;;;9.60;39.10;;;;;;4936623;29;20462;-70
2022/05/14 03:55:27;;;;;;;3.60;3.07;;;9.60;38.90;;;;;;4936498;29;20183;-71
2022/05/14 03:57:52;;;;;;;5.10;4.00;;;9.70;39.10;;;;;;4936256;29;20542;-69
2022/05/14 04:00:19;;;;;;;3.83;3.40;;;9.70;39.00;;;;;;4936255;29;20416;-70
2022/05/14 04:02:46;;;;;;;3.17;2.87;;;9.70;39.30;;;;;;4936421;29;20677;-70
2022/05/14 04:05:13;;;;;;;4.67;3.40;;;9.70;38.90;;;;;;4936352;29;20419;-70
2022/05/14 04:07:41;;;;;;;3.37;3.07;;;9.70;39.00;;;;;;4936063;29;20443;-70
2022/05/14 04:10:08;;;;;;;4.93;2.77;;;9.70;39.10;;;;;;4936130;29;20501;-70
2022/05/14 04:12:33;;;;;;;4.57;3.57;;;9.70;39.00;;;;;;4936725;29;20973;-70
2022/05/14 04:14:59;;;;;;;2.70;2.50;;;9.70;39.30;;;;;;4918909;29;20426;-70
2022/05/14 04:17:25;;;;;;;4.17;3.30;;;9.70;39.20;;;;;;4935508;29;20185;-70
2022/05/14 04:19:51;;;;;;;5.07;3.00;;;9.70;38.70;;;;;;4936095;29;20175;-71
2022/05/14 04:22:16;;;;;;;3.30;2.80;;;9.80;38.50;;;;;;4935843;29;20451;-70
2022/05/14 04:24:42;;;;;;;3.13;2.93;;;9.80;38.70;;;;;;4936150;29;20419;-71
2022/05/14 04:27:08;;;;;;;3.30;2.97;;;9.90;37.90;;;;;;4918307;29;20185;-71
2022/05/14 04:29:33;;;;;;;14.17;2.87;;;10.00;36.60;;;;;;4935792;29;20455;-70
2022/05/14 04:31:59;;;;;;;4.37;3.30;;;10.10;36.30;;;;;;4935810;29;20180;-70
2022/05/14 04:34:24;;;;;;;4.87;3.53;;;10.10;36.20;;;;;;4935844;29;20177;-71
2022/05/14 04:36:50;;;;;;;2.97;2.63;;;10.10;36.20;;;;;;4935731;29;20182;-70
2022/05/14 04:39:16;;;;;;;3.90;2.60;;;10.10;36.20;;;;;;4935203;29;20255;-70
2022/05/14 04:41:42;;;;;;;3.67;3.33;;;10.10;35.90;;;;;;4935448;29;20251;-69
2022/05/14 04:44:07;;;;;;;2.57;2.37;;;10.10;36.20;;;;;;4935900;29;20285;-70
2022/05/14 04:46:35;;;;;;;4.00;3.13;;;10.20;36.40;;;;;;4935397;29;20453;-70
2022/05/14 04:49:01;;;;;;;3.40;3.10;;;10.20;36.90;;;;;;4935051;29;20198;-70
2022/05/14 04:51:27;;;;;;;5.60;2.47;;;10.20;36.30;;;;;;4935217;29;20424;-71
2022/05/14 04:53:53;;;;;;;3.53;3.07;;;10.30;36.40;;;;;;4935277;29;20917;-70
2022/05/14 04:56:18;;;;;;;3.17;2.87;;;10.40;36.90;;;;;;4935313;29;20186;-71
2022/05/14 04:58:44;;;;;;;7.10;4.40;;;10.50;35.80;;;;;;4918001;29;20385;-70
2022/05/14 05:01:10;;;;;;;5.40;3.33;;;10.70;35.00;;;;;;4935157;29;20550;-70
2022/05/14 05:03:36;;;;;;;2.90;2.70;;;10.90;33.90;;;;;;4935176;29;20289;-71
2022/05/14 05:06:02;;;;;;;5.30;3.00;;;11.20;35.40;;;;;;4935265;29;20220;-70
2022/05/14 05:08:32;;;;;;;6.87;3.47;;;12.00;35.00;;;;;;4934977;29;20513;-70
2022/05/14 05:10:58;;;;;;;3.47;3.17;;;13.50;34.10;;;;;;4935317;29;20179;-71
2022/05/14 05:13:26;;;;;;;6.77;6.27;;;15.30;28.90;;;;;;4935318;29;20425;-70
2022/05/14 05:15:52;;;;;;;7.40;7.00;;;16.90;24.20;;;;;;4934998;29;20514;-71
2022/05/14 05:18:19;;;;;;;22.03;13.03;;;18.40;24.60;;;;;;4956854;23;20585;-73
2022/05/14 05:20:48;;;;;;;11.90;11.40;;;19.70;16.50;;;;;;4934975;28;20537;-73
2022/05/14 05:23:17;;;;;;;13.70;12.90;;;20.50;14.80;;;;;;4949747;29;20998;-73
2022/05/14 05:25:43;;;;;;;13.90;13.30;;;21.70;19.10;;;;;;4935236;29;20775;-73
2022/05/14 05:28:09;;;;;;;13.90;13.40;;;22.70;13.40;;;;;;4949550;28;20840;-73
2022/05/14 05:30:34;;;;;;;15.13;14.53;;;23.40;19.70;;;;;;4935009;29;20217;-73
2022/05/14 05:33:00;;;;;;;15.60;14.90;;;24.20;20.80;;;;;;4934876;29;20450;-73
2022/05/14 05:35:26;;;;;;;15.50;14.60;;;24.70;17.20;;;;;;4933636;29;20178;-74
2022/05/14 05:37:52;;;;;;;16.00;15.10;;;25.40;20.40;;;;;;4933759;29;20473;-74
2022/05/14 05:40:18;;;;;;;16.17;14.77;;;26.10;12.90;;;;;;4933836;29;20286;-74
2022/05/14 05:42:44;;;;;;;14.83;14.23;;;26.60;18.30;;;;;;4935317;29;20563;-74
2022/05/14 05:45:12;;;;;;;15.37;14.77;;;27.20;8.50;;;;;;4935382;29;20776;-74
2022/05/14 05:47:38;;;;;;;14.93;14.23;;;27.60;11.60;;;;;;4935238;29;20410;-74
2022/05/14 05:50:04;;;;;;;18.73;15.47;;;27.80;3.10;;;;;;4935162;29;20419;-74
2022/05/14 05:52:32;;;;;;;16.63;15.93;;;28.30;4.00;;;;;;4933908;29;20558;-74
2022/05/14 05:57:42;;;;;;;15.87;15.27;;;29.40;1.20;;;;;;4934832;29;20517;-74
2022/05/14 06:00:16;;;;;;;16.00;15.20;;;29.90;1.00;;;;;;4935046;29;20783;-74
2022/05/14 06:02:42;;;;;;;16.10;15.40;;;30.20;1.00;;;;;;4934990;29;20500;-74
2022/05/14 06:05:08;;;;;;;16.37;15.67;;;30.70;1.00;;;;;;4935484;29;20455;-73
2022/05/14 06:07:35;;;;;;;15.13;14.53;;;31.10;1.00;;;;;;4934581;29;20719;-74
2022/05/14 06:10:03;;;;;;;15.97;15.37;;;31.50;1.00;;;;;;4935267;29;20900;-74
2022/05/14 06:12:30;;;;;;;16.07;15.30;;;31.90;1.00;;;;;;4934852;29;20438;-74
2022/05/14 06:14:56;;;;;;;16.77;15.97;;;32.10;1.00;;;;;;4934525;29;20418;-74
2022/05/14 06:17:21;;;;;;;16.13;15.43;;;31.90;9.40;;;;;;4934295;29;20433;-74
2022/05/14 06:19:47;;;;;;;16.97;16.30;;;31.60;1.00;;;;;;4934321;29;20565;-74
2022/05/14 06:22:12;;;;;;;16.93;15.73;;;30.50;1.00;;;;;;4934559;29;20257;-73
2022/05/14 06:24:38;;;;;;;17.00;16.30;;;30.60;1.00;;;;;;4933608;29;20627;-74
2022/05/14 06:27:04;;;;;;;16.53;15.83;;;29.30;1.00;;;;;;4934500;29;20187;-73
2022/05/14 06:29:31;;;;;;;16.60;15.87;;;28.80;1.00;;;;;;4934355;29;20278;-73
2022/05/14 06:31:58;;;;;;;16.20;15.50;;;26.70;2.50;;;;;;4934382;29;20464;-73
2022/05/14 06:34:24;;;;;;;16.17;15.47;;;26.50;2.90;;;;;;4934222;29;20466;-73
2022/05/14 06:36:51;;;;;;;16.40;15.20;;;26.50;2.90;;;;;;4934568;29;20423;-73
2022/05/14 06:39:16;;;;;;;16.93;16.13;;;26.40;2.70;;;;;;4934128;29;20441;-73
2022/05/14 06:41:42;;;;;;;17.37;16.47;;;26.30;3.20;;;;;;4935503;29;20419;-73
2022/05/14 06:44:08;;;;;;;16.63;15.80;;;26.30;3.40;;;;;;4934376;29;20220;-73
2022/05/14 06:46:34;;;;;;;16.50;15.57;;;26.30;3.30;;;;;;4936368;29;20262;-73
2022/05/14 06:49:00;;;;;;;15.90;15.30;;;25.40;4.00;;;;;;4935448;29;20751;-73
2022/05/14 06:51:28;;;;;;;16.23;15.53;;;25.30;4.70;;;;;;4937620;29;20424;-73
2022/05/14 06:53:58;;;;;;;17.30;16.57;;;25.30;4.00;;;;;;4937465;29;20189;-73
2022/05/14 06:56:26;;;;;;;15.97;15.17;;;25.40;3.70;;;;;;4937673;29;20447;-73
2022/05/14 06:58:51;;;;;;;16.03;15.33;;;25.60;4.80;;;;;;4937395;29;20448;-73
2022/05/14 07:01:19;;;;;;;16.30;15.40;;;26.10;3.10;;;;;;4937263;29;20415;-73
2022/05/14 07:06:38;;;;;;;16.93;15.30;;;27.90;2.20;;;;;;4937742;29;20810;-73
2022/05/14 07:09:08;;;;;;;17.03;16.03;;;26.70;2.10;;;;;;4937625;29;20949;-74
2022/05/14 07:11:35;;;;;;;17.07;15.90;;;27.80;2.80;;;;;;4937600;29;20430;-73
2022/05/14 07:14:02;;;;;;;16.50;15.73;;;27.00;1.70;;;;;;4937763;29;20931;-73
2022/05/14 07:16:27;;;;;;;16.53;15.60;;;27.70;1.70;;;;;;4937543;29;20849;-73
2022/05/14 07:18:53;;;;;;;15.50;14.70;;;26.60;1.00;;;;;;4937065;29;20533;-73
2022/05/14 07:21:19;;;;;;;15.83;15.23;;;27.00;2.20;;;;;;4936117;29;20175;-73
2022/05/14 07:23:44;;;;;;;16.23;15.63;;;26.80;1.00;;;;;;4936906;29;20469;-73
2022/05/14 07:26:10;;;;;;;16.23;15.63;;;25.30;1.80;;;;;;4937027;29;20175;-73
2022/05/14 07:28:37;;;;;;;17.00;16.20;;;24.20;1.90;;;;;;4936756;29;20210;-73
2022/05/14 07:31:03;;;;;;;16.97;16.27;;;24.90;3.40;;;;;;4937297;29;20179;-73
2022/05/14 07:33:30;;;;;;;16.77;16.07;;;26.10;2.60;;;;;;4936981;29;20837;-73
2022/05/14 07:36:01;;;;;;;16.97;16.27;;;27.40;1.70;;;;;;4937193;29;20454;-73
2022/05/14 07:38:28;;;;;;;16.60;15.80;;;27.80;1.30;;;;;;4936666;29;20875;-74
2022/05/14 07:40:53;;;;;;;16.40;15.70;;;28.50;1.00;;;;;;4936891;29;20422;-72
2022/05/14 07:43:23;;;;;;;16.83;16.13;;;29.30;1.00;;;;;;4936503;29;20859;-74
2022/05/14 07:45:53;;;;;;;16.63;15.73;;;29.90;1.00;;;;;;4936693;29;20175;-73
2022/05/14 07:48:31;;;;;;;16.27;15.60;;;30.30;1.00;;;;;;4936452;29;20434;-74
2022/05/14 07:50:59;;;;;;;17.33;16.27;;;30.30;1.00;;;;;;4936517;28;20513;-74
2022/05/14 07:53:30;;;;;;;16.40;15.70;;;30.60;1.00;;;;;;4936376;29;20465;-74
2022/05/14 07:55:59;;;;;;;16.43;15.80;;;30.70;1.00;;;;;;4935343;29;20477;-74
2022/05/14 07:58:25;;;;;;;17.40;16.57;;;31.10;1.00;;;;;;4936032;29;20849;-74
2022/05/14 08:00:51;;;;;;;15.70;15.10;;;30.90;1.00;;;;;;4935614;29;20450;-75
2022/05/14 08:03:17;;;;;;;15.40;14.70;;;30.60;1.00;;;;;;4936413;29;20493;-74
2022/05/14 08:05:43;;;;;;;16.30;15.60;;;28.10;1.00;;;;;;4936626;29;20270;-73
2022/05/14 08:08:08;;;;;;;16.00;15.40;;;28.20;1.00;;;;;;4935875;29;20446;-73
2022/05/14 08:10:35;;;;;;;16.63;15.93;;;27.10;1.00;;;;;;4934909;29;20792;-74
2022/05/14 08:13:00;;;;;;;16.00;15.30;;;27.40;1.00;;;;;;4936219;29;20175;-73
2022/05/14 08:15:27;;;;;;;16.13;15.43;;;27.30;1.00;;;;;;4936002;29;20426;-73
2022/05/14 08:17:53;;;;;;;15.63;15.03;;;27.40;1.00;;;;;;4935753;29;20202;-73
2022/05/14 08:20:19;;;;;;;15.83;14.87;;;27.70;1.00;;;;;;4936024;29;20442;-73
2022/05/14 08:25:30;;;;;;;16.30;15.50;;;26.90;1.00;;;;;;4936236;29;20422;-73
2022/05/14 08:27:56;;;;;;;15.37;14.77;;;26.00;1.30;;;;;;4935714;29;20434;-73
2022/05/14 08:30:25;;;;;;;16.00;15.30;;;26.10;1.00;;;;;;4935830;29;20179;-73
2022/05/14 08:32:51;;;;;;;16.50;15.80;;;26.30;1.00;;;;;;4935867;29;20179;-73
2022/05/14 08:35:18;;;;;;;15.87;15.07;;;26.60;1.70;;;;;;4936142;29;20421;-73
2022/05/14 08:37:44;;;;;;;16.50;15.50;;;27.00;1.00;;;;;;4935459;29;20440;-73
2022/05/14 08:40:21;;;;;;;16.20;15.50;;;27.20;1.00;;;;;;4934448;29;20912;-72
2022/05/14 08:42:51;;;;;;;16.37;15.43;;;27.10;1.00;;;;;;4934287;29;20520;-73
2022/05/14 08:45:20;;;;;;;15.97;15.37;;;26.70;1.00;;;;;;4935643;29;20429;-73
2022/05/14 08:47:55;;;;;;;15.73;15.13;;;26.20;1.00;;;;;;4933747;29;20455;-73
2022/05/14 08:50:29;;;;;;;15.70;15.10;;;25.10;1.00;;;;;;4935627;29;20733;-73
2022/05/14 08:53:00;;;;;;;15.30;14.70;;;24.90;1.00;;;;;;4936100;29;20789;-73
2022/05/14 08:55:33;;;;;;;15.73;15.03;;;23.50;2.10;;;;;;4936040;29;20410;-72
2022/05/14 08:58:06;;;;;;;16.00;15.40;;;23.50;1.00;;;;;;4934083;29;21043;-73
2022/05/14 09:00:31;;;;;;;15.20;14.63;;;23.40;1.30;;;;;;4935798;29;20429;-73
2022/05/14 09:02:57;;;;;;;15.07;14.37;;;22.70;2.90;;;;;;4935558;29;20462;-73
2022/05/14 09:05:29;;;;;;;15.13;14.53;;;22.60;1.80;;;;;;4934363;29;20607;-74
2022/05/14 09:07:54;;;;;;;16.07;15.00;;;21.90;2.40;;;;;;4933810;29;20573;-73
2022/05/14 09:10:25;;;;;;;14.07;13.57;;;21.30;4.10;;;;;;4935491;29;20410;-73
2022/05/14 09:13:11;;;;;;;14.50;14.00;;;20.80;5.90;;;;;;4935795;29;20182;-73
2022/05/14 09:15:47;;;;;;;16.23;14.80;;;20.60;6.50;;;;;;4937173;29;20410;-73
2022/05/14 09:18:44;;;;;;;14.40;13.70;;;20.60;5.50;;;;;;4935985;29;20465;-73
2022/05/14 09:21:21;;;;;;;14.10;13.50;;;20.80;6.60;;;;;;4934549;29;20430;-74
2022/05/14 09:23:52;;;;;;;14.27;13.77;;;20.60;5.00;;;;;;4936057;29;20521;-74
2022/05/14 09:26:27;;;;;;;15.40;14.60;;;20.40;5.50;;;;;;4935828;29;20418;-73
2022/05/14 09:28:57;;;;;;;14.40;13.90;;;20.80;6.20;;;;;;4935430;29;20441;-73
2022/05/14 09:31:32;;;;;;;14.37;13.67;;;20.80;5.80;;;;;;4935455;29;20415;-73
2022/05/14 09:34:10;;;;;;;14.87;14.27;;;20.60;5.40;;;;;;4935484;29;20917;-73
2022/05/14 09:36:36;;;;;;;14.60;13.80;;;20.40;6.20;;;;;;4935628;29;20772;-74
2022/05/14 09:39:06;;;;;;;14.20;13.63;;;20.70;7.20;;;;;;4935022;29;20434;-74
2022/05/14 09:41:40;;;;;;;15.67;14.87;;;21.00;7.60;;;;;;4935490;29;20415;-73
2022/05/14 09:44:12;;;;;;;14.90;14.20;;;21.30;6.90;;;;;;4935505;29;20493;-73
2022/05/14 09:46:37;;;;;;;14.87;14.17;;;21.10;7.10;;;;;;4935161;29;20411;-74
2022/05/14 09:49:06;;;;;;;14.60;14.00;;;21.30;7.40;;;;;;4934676;29;20445;-72
2022/05/14 09:51:36;;;;;;;13.90;13.40;;;21.60;7.30;;;;;;4935074;29;20699;-73
2022/05/14 09:54:22;;;;;;;14.60;14.10;;;21.60;6.50;;;;;;4935250;29;20578;-75
2022/05/14 09:57:09;;;;;;;15.20;14.60;;;21.70;7.10;;;;;;4935590;29;20414;-73
2022/05/14 09:59:46;;;;;;;16.23;15.23;;;21.60;7.00;;;;;;4935615;29;20452;-73
2022/05/14 10:02:33;;;;;;;14.90;14.30;;;21.40;7.00;;;;;;4934182;29;20421;-74
2022/05/14 10:05:10;;;;;;;15.10;14.40;;;21.50;7.70;;;;;;4935676;29;21522;-73
2022/05/14 10:07:50;;;;;;;16.27;15.33;;;21.40;8.00;;;;;;4935080;29;20414;-74
2022/05/14 10:10:58;;;;;;;15.73;14.93;;;21.30;7.60;;;;;;4935661;29;20439;-73
2022/05/14 10:13:35;;;;;;;15.97;15.10;;;21.20;8.00;;;;;;4935005;29;20919;-75
2022/05/14 10:16:07;;;;;;;14.40;13.70;;;21.00;8.20;;;;;;4935932;29;20436;-73
2022/05/14 10:18:38;;;;;;;24.03;22.33;;;21.20;8.40;;;;;;4934338;29;20454;-73
2022/05/14 10:21:17;;;;;;;16.53;14.60;;;21.50;9.20;;;;;;4933219;29;20541;-73
2022/05/14 10:27:07;;;;;;;15.27;14.67;;;21.60;7.80;;;;;;4938777;29;20413;-73
2022/05/14 10:29:54;;;;;;;15.77;14.80;;;21.40;7.20;;;;;;4938361;29;20494;-74
2022/05/14 10:32:20;;;;;;;14.60;13.87;;;21.60;7.90;;;;;;4939799;29;20395;-72
2022/05/14 10:34:54;;;;;;;14.90;14.20;;;21.60;7.40;;;;;;4938741;29;20453;-73
2022/05/14 10:37:46;;;;;;;15.30;14.40;;;21.80;8.20;;;;;;4938176;29;20424;-73
2022/05/14 10:40:48;;;;;;;15.80;15.10;;;21.90;6.90;;;;;;4939533;29;20411;-73
2022/05/14 10:43:23;;;;;;;15.00;14.20;;;21.70;7.20;;;;;;4939392;29;20496;-74
2022/05/14 10:45:52;;;;;;;15.13;14.53;;;21.80;7.30;;;;;;4940223;29;20445;-74
2022/05/14 10:48:42;;;;;;;15.17;14.17;;;22.00;6.70;;;;;;4940496;29;20438;-72
2022/05/14 10:51:11;;;;;;;17.17;16.27;;;22.20;4.50;;;;;;4939900;29;20803;-73
2022/05/14 10:53:39;;;;;;;14.93;14.23;;;22.30;5.90;;;;;;4938630;29;20543;-73
2022/05/14 10:56:43;;;;;;;15.17;14.57;;;22.50;4.20;;;;;;4939088;29;20789;-73
2022/05/14 10:59:12;;;;;;;14.97;14.33;;;22.50;4.70;;;;;;4939418;29;20461;-73
2022/05/14 11:01:46;;;;;;;15.80;15.20;;;22.50;4.70;;;;;;4941719;29;20417;-74
2022/05/14 11:04:21;;;;;;;14.87;14.27;;;22.50;4.70;;;;;;4941972;29;20492;-74
2022/05/14 11:07:07;;;;;;;16.23;15.43;;;22.40;3.90;;;;;;4942272;29;20711;-74
2022/05/14 11:09:45;;;;;;;14.63;14.03;;;22.20;3.60;;;;;;4939988;29;20435;-71
2022/05/14 11:12:20;;;;;;;15.10;14.50;;;22.40;4.60;;;;;;4939965;29;20426;-72
2022/05/14 11:14:47;;;;;;;14.83;14.23;;;22.50;4.70;;;;;;4939029;29;20406;-73
2022/05/14 11:17:41;;;;;;;15.60;14.90;;;22.30;3.70;;;;;;4940977;29;20447;-74
2022/05/14 11:20:06;;;;;;;15.00;14.20;;;22.20;4.90;;;;;;4905644;29;20816;-77
2022/05/14 11:22:44;;;;;;;15.63;14.73;;;22.40;3.10;;;;;;4921638;29;20411;-75
2022/05/14 11:25:21;;;;;;;15.30;14.50;;;22.30;2.60;;;;;;4921875;29;20186;-75
2022/05/14 11:28:11;;;;;;;15.00;14.20;;;22.10;2.90;;;;;;4921454;29;20419;-76
2022/05/14 11:30:41;;;;;;;15.10;14.50;;;21.90;2.50;;;;;;4921567;29;20471;-75
2022/05/14 11:33:27;;;;;;;14.50;14.00;;;22.00;3.70;;;;;;4921404;29;20755;-75
2022/05/14 11:35:58;;;;;;;14.80;14.00;;;21.90;3.70;;;;;;4921400;29;20420;-75
2022/05/14 11:38:26;;;;;;;15.50;14.80;;;22.10;4.50;;;;;;4905301;29;20443;-73
2022/05/14 11:41:00;;;;;;;15.00;14.40;;;22.30;3.60;;;;;;4919906;29;20851;-74
2022/05/14 11:43:39;;;;;;;15.60;14.90;;;22.00;3.50;;;;;;4921440;29;21015;-75
2022/05/14 11:46:23;;;;;;;15.20;14.60;;;22.20;4.10;;;;;;4922535;29;20783;-75
2022/05/14 11:49:11;;;;;;;15.47;14.87;;;22.40;3.40;;;;;;4921443;29;20463;-76
2022/05/14 11:51:58;;;;;;;15.40;14.80;;;22.70;3.70;;;;;;4921768;29;20415;-74
2022/05/14 11:54:43;;;;;;;15.00;14.40;;;22.80;2.80;;;;;;4921740;29;20416;-75
2022/05/14 11:57:25;;;;;;;14.90;14.30;;;22.90;3.30;;;;;;4921354;29;20407;-75
2022/05/14 11:59:57;;;;;;;16.53;15.77;;;23.10;3.50;;;;;;4923112;29;20439;-74
2022/05/14 12:02:32;;;;;;;15.37;14.77;;;23.30;3.30;;;;;;4923052;29;20414;-76
2022/05/14 12:04:59;;;;;;;15.00;14.40;;;23.40;2.60;;;;;;4922204;29;20430;-77
2022/05/14 12:07:31;;;;;;;14.67;14.07;;;23.50;1.90;;;;;;4921505;29;20427;-73
2022/05/14 12:10:12;;;;;;;14.60;14.00;;;23.20;1.00;;;;;;4921832;29;20841;-73
2022/05/14 12:13:07;;;;;;;15.97;15.27;;;23.00;1.00;;;;;;4921194;29;20463;-74
2022/05/14 12:15:33;;;;;;;14.93;14.27;;;23.20;1.50;;;;;;4921199;29;21021;-76
2022/05/14 12:18:00;;;;;;;15.20;14.60;;;23.20;1.00;;;;;;4922727;29;20457;-75
2022/05/14 12:20:31;;;;;;;14.87;14.37;;;22.90;1.00;;;;;;4939270;29;20505;-75
2022/05/14 12:23:03;;;;;;;15.27;14.67;;;22.90;1.00;;;;;;4939143;29;20473;-76
2022/05/14 12:25:37;;;;;;;15.00;14.10;;;22.70;1.00;;;;;;4938225;29;20513;-75
2022/05/14 12:28:03;;;;;;;15.70;15.00;;;22.80;1.00;;;;;;4936507;29;20496;-75
2022/05/14 12:33:19;;;;;;;14.33;13.80;;;22.80;1.00;;;;;;4938633;29;20229;-75
2022/05/14 12:35:57;;;;;;;15.10;14.50;;;23.10;1.00;;;;;;4937989;29;20422;-76
2022/05/14 12:38:32;;;;;;;14.17;13.67;;;23.30;1.00;;;;;;4937966;29;20449;-75
2022/05/14 12:40:58;;;;;;;14.10;13.50;;;23.40;1.00;;;;;;4938534;29;20933;-76
2022/05/14 12:43:25;;;;;;;15.03;13.90;;;23.40;1.00;;;;;;4935743;29;20505;-75
2022/05/14 12:46:05;;;;;;;14.40;13.87;;;23.50;1.00;;;;;;4935748;29;20182;-75
2022/05/14 12:48:31;;;;;;;14.97;14.33;;;23.60;1.00;;;;;;4935156;29;20438;-74
2022/05/14 12:50:59;;;;;;;15.97;15.20;;;23.70;1.00;;;;;;4935571;29;20820;-75
2022/05/14 12:53:41;;;;;;;15.60;15.00;;;23.80;1.00;;;;;;4935450;29;20423;-75
2022/05/14 12:56:07;;;;;;;14.90;14.40;;;23.70;1.00;;;;;;4935882;29;20790;-76
2022/05/14 12:58:36;;;;;;;24.13;17.20;;;23.70;1.00;;;;;;4934246;29;20928;-74
2022/05/14 13:01:04;;;;;;;15.10;14.50;;;23.10;1.00;;;;;;4935377;29;20436;-74
2022/05/14 13:03:39;;;;;;;15.63;15.03;;;23.10;1.00;;;;;;4935507;29;20462;-75
2022/05/14 13:06:11;;;;;;;15.83;15.13;;;23.20;1.00;;;;;;4934084;29;20803;-75
2022/05/14 13:08:49;;;;;;;15.07;14.20;;;23.40;1.00;;;;;;4933676;29;20446;-72
2022/05/14 13:11:19;;;;;;;14.87;14.37;;;23.50;1.00;;;;;;4935405;29;20562;-74
2022/05/14 13:13:46;;;;;;;15.47;14.90;;;23.60;1.00;;;;;;4935209;29;20549;-75